createdAt,value
2023-05-04T00:02:21.118Z,102702.75
2023-05-04T00:05:08.519Z,102708.88
2023-05-04T00:07:55.515Z,102709.75
2023-05-04T00:10:42.764Z,102714.06
2023-05-04T00:13:29.691Z,102707.06
2023-05-04T00:16:17.033Z,102701.72
2023-05-04T00:19:03.981Z,102715.72
2023-05-04T00:21:50.993Z,102720.09
2023-05-04T00:24:38.234Z,102716.53
2023-05-04T00:27:25.282Z,102713.81
2023-05-04T00:30:12.886Z,102721.72
2023-05-04T00:33:00.049Z,102720.75
2023-05-04T00:35:47.121Z,102728.63
2023-05-04T00:38:34.446Z,102733.00
2023-05-04T00:41:21.479Z,102736.50
2023-05-04T00:44:08.914Z,102736.47
2023-05-04T00:46:57.859Z,102687.88
2023-05-04T00:49:45.646Z,102736.41
2023-05-04T00:52:34.427Z,102728.44
2023-05-04T00:55:21.601Z,102746.88
2023-05-04T00:58:09.729Z,102737.28
2023-05-04T01:00:57.085Z,102742.50
2023-05-04T01:03:45.441Z,102749.44
2023-05-04T01:06:44.754Z,102745.88
2023-05-04T01:09:47.987Z,102752.00
2023-05-04T01:12:47.925Z,102747.56
2023-05-04T01:15:35.965Z,102754.56
2023-05-04T01:18:23.395Z,102752.78
2023-05-04T01:21:10.324Z,102755.38
2023-05-04T01:23:57.541Z,102751.81
2023-05-04T01:26:48.491Z,102741.16
2023-05-04T01:29:43.101Z,102757.81
2023-05-04T01:32:34.963Z,102755.13
2023-05-04T01:35:22.914Z,102761.25
2023-05-04T01:38:10.042Z,102766.44
2023-05-04T01:40:57.063Z,102709.00
2023-05-04T01:43:44.108Z,102775.13
2023-05-04T01:46:31.425Z,102775.97
2023-05-04T01:49:18.644Z,102782.06
2023-05-04T01:52:05.922Z,102782.91
2023-05-04T01:54:52.874Z,102701.69
2023-05-04T01:57:40.107Z,102778.47
2023-05-04T02:00:27.702Z,102785.44
2023-05-04T02:03:14.945Z,102780.06
2023-05-04T02:06:02.608Z,102778.34
2023-05-04T02:08:50.069Z,102789.66
2023-05-04T02:11:37.085Z,102785.25
2023-05-04T02:14:44.315Z,102782.50
2023-05-04T02:17:31.384Z,102793.88
2023-05-04T02:20:18.750Z,102789.53
2023-05-04T02:23:06.240Z,102790.38
2023-05-04T02:25:53.392Z,102798.25
2023-05-04T02:28:40.566Z,102817.44
2023-05-04T02:31:29.514Z,102806.97
2023-05-04T02:34:16.521Z,102801.66
2023-05-04T02:37:07.666Z,102807.84
2023-05-04T02:39:55.460Z,102759.28
2023-05-04T02:42:43.120Z,102792.84
2023-05-04T02:45:30.597Z,102790.19
2023-05-04T02:48:17.662Z,102802.56
2023-05-04T02:51:05.156Z,102721.22
2023-05-04T02:53:52.402Z,102800.69
2023-05-04T02:56:39.455Z,102808.63
2023-05-04T02:59:06.695Z,102804.25
2023-05-04T03:01:53.990Z,102813.88
2023-05-04T03:04:41.059Z,102811.22
2023-05-04T03:07:29.539Z,102816.53
2023-05-04T03:10:16.455Z,102813.94
2023-05-04T03:13:04.079Z,102819.19
2023-05-04T03:15:51.148Z,102814.00
2023-05-04T03:18:38.399Z,102821.03
2023-05-04T03:21:25.898Z,102816.66
2023-05-04T03:24:13.475Z,102817.59
2023-05-04T03:27:00.367Z,102820.25
2023-05-04T03:29:47.776Z,102821.19
2023-05-04T03:32:35.251Z,102820.38
2023-05-04T03:35:24.917Z,102702.19
2023-05-04T03:38:14.357Z,102824.88
2023-05-04T03:41:04.106Z,102812.63
2023-05-04T03:43:51.078Z,102825.84
2023-05-04T03:46:38.834Z,102825.06
2023-05-04T03:49:25.935Z,102829.47
2023-05-04T03:52:13.068Z,102824.28
2023-05-04T03:54:59.981Z,102823.47
2023-05-04T03:57:47.289Z,102821.78
2023-05-04T04:00:34.976Z,102830.59
2023-05-04T04:03:30.392Z,102837.59
2023-05-04T04:06:17.635Z,102842.03
2023-05-04T04:09:06.323Z,102789.97
2023-05-04T04:11:53.312Z,102847.34
2023-05-04T04:14:40.666Z,102834.19
2023-05-04T04:17:27.609Z,102832.44
2023-05-04T04:20:14.812Z,102846.53
2023-05-04T04:23:01.808Z,102856.28
2023-05-04T04:25:49.041Z,102858.91
2023-05-04T04:28:35.974Z,102858.09
2023-05-04T04:31:23.390Z,102866.03
2023-05-04T05:42:54.425Z,102825.50
2023-05-04T05:45:21.866Z,102814.97
2023-05-04T05:47:48.935Z,102887.41
2023-05-04T05:50:16.149Z,102883.97
2023-05-04T05:52:43.217Z,102871.63
2023-05-04T05:55:10.431Z,102894.63
2023-05-04T05:57:37.678Z,102866.50
2023-05-04T06:00:06.229Z,102882.44
2023-05-04T06:02:39.316Z,102886.94
2023-05-04T06:05:06.994Z,102890.44
2023-05-04T06:07:34.111Z,102892.34
2023-05-04T06:10:01.214Z,102893.31
2023-05-04T06:12:28.488Z,102894.22
2023-05-04T06:14:55.482Z,102896.91
2023-05-04T06:17:22.858Z,102900.47
2023-05-04T06:19:51.399Z,102896.13
2023-05-04T06:22:18.501Z,102904.09
2023-05-04T06:24:46.737Z,102857.41
2023-05-04T06:27:13.856Z,102902.50
2023-05-04T06:29:41.513Z,102904.28
2023-05-04T06:32:10.512Z,102914.84
2023-05-04T06:34:37.627Z,102914.91
2023-05-04T06:37:04.858Z,102917.59
2023-05-04T06:39:32.141Z,102908.84
2023-05-04T06:41:59.828Z,102913.31
2023-05-04T06:44:28.542Z,102915.09
2023-05-04T06:46:56.172Z,102893.16
2023-05-04T06:49:23.206Z,102908.13
2023-05-04T06:51:50.214Z,102909.91
2023-05-04T06:54:17.494Z,102875.56
2023-05-04T06:56:44.580Z,102918.78
2023-05-04T06:59:11.679Z,102921.47
2023-05-04T07:01:39.123Z,102898.63
2023-05-04T07:04:06.524Z,102919.78
2023-05-04T07:06:33.857Z,102919.84
2023-05-04T07:09:01.337Z,102915.50
2023-05-04T07:11:28.812Z,102907.56
2023-05-04T07:13:56.037Z,102911.09
2023-05-04T07:16:23.116Z,102911.97
2023-05-04T07:18:50.341Z,102914.66
2023-05-04T07:21:27.687Z,102922.63
2023-05-04T07:23:56.704Z,102918.25
2023-05-04T07:26:23.704Z,102924.47
2023-05-04T07:28:50.754Z,102900.69
2023-05-04T07:31:18.223Z,102919.19
2023-05-04T07:33:45.808Z,102928.00
2023-05-04T07:36:12.858Z,102902.50
2023-05-04T07:38:40.067Z,102937.75
2023-05-04T07:41:07.369Z,102930.75
2023-05-04T07:43:34.371Z,102936.06
2023-05-04T07:46:02.013Z,102934.31
2023-05-04T07:48:30.583Z,102922.00
2023-05-04T07:50:57.799Z,102931.69
2023-05-04T07:53:26.468Z,102932.63
2023-05-04T07:56:01.071Z,102933.53
2023-05-04T07:58:28.149Z,102917.72
2023-05-04T08:00:55.177Z,102926.53
2023-05-04T08:03:22.384Z,102900.97
2023-05-04T08:05:49.792Z,102898.34
2023-05-04T08:08:16.712Z,102889.56
2023-05-04T08:10:43.646Z,102897.53
2023-05-04T08:13:10.921Z,102923.97
2023-05-04T08:15:38.011Z,102929.28
2023-05-04T08:18:05.154Z,102929.28
2023-05-04T08:20:32.761Z,102902.00
2023-05-04T08:23:00.109Z,102943.44
2023-05-04T08:25:27.127Z,102914.38
2023-05-04T08:27:54.279Z,102910.00
2023-05-04T08:30:21.323Z,102918.78
2023-05-04T08:32:51.228Z,102920.59
2023-05-04T08:35:18.400Z,102926.75
2023-05-04T08:37:45.443Z,102929.41
2023-05-04T08:40:12.928Z,102926.75
2023-05-04T08:42:40.629Z,102934.69
2023-05-04T08:45:08.369Z,102927.63
2023-05-04T08:47:36.139Z,102927.63
2023-05-04T08:50:04.882Z,102932.03
2023-05-04T08:52:32.368Z,102933.75
2023-05-04T08:54:59.461Z,102939.03
2023-05-04T08:57:27.504Z,102930.25
2023-05-04T08:59:55.785Z,102940.81
2023-05-04T09:02:24.317Z,102924.91
2023-05-04T09:04:53.052Z,102924.00
2023-05-04T09:07:21.633Z,102929.25
2023-05-04T09:09:51.027Z,102932.78
2023-05-04T09:12:19.426Z,102941.63
2023-05-04T09:14:46.842Z,102940.72
2023-05-04T09:17:17.759Z,102926.63
2023-05-04T09:19:45.026Z,102948.66
2023-05-04T09:22:17.312Z,102954.84
2023-05-04T09:24:45.762Z,102943.34
2023-05-04T09:27:14.353Z,102931.03
2023-05-04T09:29:42.586Z,102961.88
2023-05-04T09:32:16.555Z,102974.25
2023-05-04T09:34:51.411Z,102964.53
2023-05-04T09:37:21.090Z,102960.13
2023-05-04T09:39:53.845Z,102965.44
2023-05-04T09:42:21.709Z,102974.25
2023-05-04T09:45:02.532Z,102977.75
2023-05-04T09:47:40.465Z,102970.69
2023-05-04T09:50:26.879Z,102959.22
2023-05-04T09:52:56.280Z,102963.63
2023-05-04T09:55:24.674Z,102938.94
2023-05-04T09:57:51.726Z,102969.75
2023-05-04T10:00:19.567Z,102971.53
2023-05-04T10:02:48.043Z,102969.75
2023-05-04T10:05:21.426Z,102977.69
2023-05-04T10:07:48.648Z,102923.06
2023-05-04T10:10:15.865Z,102949.44
2023-05-04T10:12:45.712Z,102931.84
2023-05-04T10:15:14.811Z,102964.44
2023-05-04T10:17:57.978Z,102960.91
2023-05-04T10:20:55.794Z,102974.13
2023-05-04T10:23:47.550Z,102977.66
2023-05-04T10:26:53.854Z,102975.00
2023-05-04T10:29:24.082Z,102983.81
2023-05-04T10:31:52.768Z,102974.16
2023-05-04T10:34:31.037Z,102979.44
2023-05-04T10:36:59.681Z,102951.25
2023-05-04T10:39:29.664Z,102976.75
2023-05-04T10:42:07.298Z,102983.78
2023-05-04T10:44:55.133Z,102978.47
2023-05-04T10:47:34.398Z,102983.75
2023-05-04T10:50:11.207Z,102971.41
2023-05-04T10:52:47.112Z,102983.72
2023-05-04T10:55:14.813Z,102986.38
2023-05-04T10:57:52.882Z,102971.38
2023-05-04T11:00:20.855Z,102989.88
2023-05-04T11:02:49.061Z,102993.44
2023-05-04T11:05:20.784Z,102972.31
2023-05-04T11:07:53.413Z,102997.88
2023-05-04T11:10:26.007Z,102985.56
2023-05-04T11:13:05.719Z,102980.22
2023-05-04T11:15:44.463Z,102986.41
2023-05-04T11:18:11.588Z,102995.19
2023-05-04T11:20:38.652Z,102989.88
2023-05-04T11:23:10.298Z,102982.78
2023-05-04T11:25:37.738Z,102971.25
2023-05-04T11:28:05.219Z,102980.00
2023-05-04T11:30:36.210Z,102956.19
2023-05-04T11:33:11.812Z,102986.09
2023-05-04T11:35:39.464Z,102988.75
2023-05-04T11:38:07.756Z,102991.41
2023-05-04T11:40:36.209Z,102998.47
2023-05-04T11:43:04.406Z,102980.84
2023-05-04T11:45:36.532Z,102996.75
2023-05-04T11:48:04.543Z,102979.16
2023-05-04T11:50:32.066Z,103000.34
2023-05-04T11:53:10.157Z,103006.53
2023-05-04T11:55:40.135Z,102996.84
2023-05-04T11:58:09.440Z,102999.47
2023-05-04T12:00:44.348Z,102988.00
2023-05-04T12:03:27.864Z,102985.28
2023-05-04T12:06:03.324Z,103001.09
2023-05-04T12:08:34.078Z,102994.91
2023-05-04T12:11:20.536Z,102989.59
2023-05-04T12:13:49.323Z,102992.25
2023-05-04T12:16:20.584Z,103004.59
2023-05-04T12:18:48.517Z,103002.81
2023-05-04T12:21:18.717Z,102998.38
2023-05-04T12:23:47.033Z,102994.81
2023-05-04T12:26:16.843Z,103007.97
2023-05-04T12:28:45.856Z,103016.78
2023-05-04T12:31:12.939Z,103011.47
2023-05-04T12:33:40.341Z,103034.34
2023-05-04T12:36:07.735Z,103033.47
2023-05-04T12:38:35.057Z,103033.47
2023-05-04T12:41:04.663Z,103016.75
2023-05-04T12:43:33.097Z,103000.06
2023-05-04T12:46:00.567Z,103016.00
2023-05-04T12:48:33.062Z,103031.03
2023-05-04T12:51:04.109Z,103033.78
2023-05-04T12:53:32.397Z,103029.41
2023-05-04T12:56:01.252Z,103024.19
2023-05-04T12:58:28.389Z,103025.94
2023-05-04T13:00:56.736Z,103030.34
2023-05-04T13:03:24.324Z,103025.03
2023-05-04T13:05:51.590Z,103013.56
2023-05-04T13:08:20.249Z,103010.84
2023-05-04T13:10:47.377Z,103007.25
2023-05-04T13:13:18.005Z,103016.03
2023-05-04T13:15:45.391Z,103025.69
2023-05-04T13:18:13.247Z,103030.13
2023-05-04T13:20:40.938Z,103030.16
2023-05-04T13:23:08.063Z,103031.13
2023-05-04T13:25:35.253Z,103038.16
2023-05-04T13:28:02.685Z,103034.69
2023-05-04T13:30:29.756Z,103041.75
2023-05-04T13:32:57.197Z,103039.19
2023-05-04T13:35:24.415Z,103037.44
2023-05-04T13:37:51.613Z,103048.91
2023-05-04T13:40:19.247Z,103018.09
2023-05-04T13:42:46.323Z,103052.47
2023-05-04T13:45:13.620Z,103052.47
2023-05-04T13:47:40.946Z,103052.47
2023-05-04T13:50:08.501Z,103051.56
2023-05-04T13:52:36.419Z,103050.72
2023-05-04T13:55:05.038Z,103060.44
2023-05-04T13:57:32.275Z,103043.72
2023-05-04T14:00:06.968Z,103050.78
2023-05-04T14:02:38.204Z,103073.72
2023-05-04T14:05:06.094Z,103070.22
2023-05-04T14:07:34.638Z,103065.84
2023-05-04T14:10:01.977Z,103063.22
2023-05-04T14:12:29.281Z,103062.34
2023-05-04T14:14:57.368Z,103035.94
2023-05-04T14:17:25.083Z,103036.78
2023-05-04T14:19:52.231Z,103053.53
2023-05-04T14:22:19.153Z,103025.31
2023-05-04T14:24:46.305Z,103042.88
2023-05-04T14:27:13.348Z,103052.56
2023-05-04T14:29:40.495Z,103047.28
2023-05-04T14:32:07.772Z,103054.31
2023-05-04T14:34:35.096Z,103062.25
2023-05-04T14:37:02.151Z,103062.22
2023-05-04T14:39:29.274Z,103061.31
2023-05-04T14:41:58.056Z,103063.94
2023-05-04T14:44:26.229Z,103065.69
2023-05-04T14:46:53.361Z,103064.75
2023-05-04T14:49:34.956Z,103056.78
2023-05-04T14:52:04.214Z,103058.56
2023-05-04T14:54:31.281Z,103060.31
2023-05-04T14:56:59.866Z,103055.03
2023-05-04T14:59:27.242Z,103044.50
2023-05-04T15:01:55.429Z,103050.69
2023-05-04T15:04:22.803Z,103061.28
2023-05-04T15:06:50.055Z,103032.16
2023-05-04T15:09:17.215Z,103053.31
2023-05-04T15:11:44.366Z,103037.47
2023-05-04T15:14:11.446Z,103053.31
2023-05-04T15:16:38.637Z,103060.34
2023-05-04T15:19:05.886Z,103055.09
2023-05-04T15:21:33.216Z,103047.22
2023-05-04T15:24:00.599Z,103052.53
2023-05-04T15:26:29.211Z,103035.81
2023-05-04T15:28:56.263Z,103065.78
2023-05-04T15:31:23.427Z,103042.84
2023-05-04T15:33:50.466Z,103054.34
2023-05-04T15:36:17.492Z,103045.50
2023-05-04T15:38:44.743Z,103033.13
2023-05-04T15:41:12.580Z,103051.63
2023-05-04T15:43:39.725Z,103052.47
2023-05-04T15:46:06.805Z,103054.19
2023-05-04T15:48:33.761Z,103049.75
2023-05-04T15:51:01.305Z,103052.38
2023-05-04T15:53:28.420Z,103053.28
2023-05-04T15:55:55.465Z,103045.34
2023-05-04T15:58:22.558Z,103039.16
2023-05-04T16:00:49.888Z,103033.84
2023-05-04T16:03:18.207Z,103062.03
2023-05-04T16:05:45.191Z,103062.06
2023-05-04T16:08:12.086Z,103068.28
2023-05-04T16:10:39.132Z,103058.63
2023-05-04T16:13:06.187Z,103058.63
2023-05-04T16:15:33.358Z,103062.19
2023-05-04T16:18:00.607Z,103038.44
2023-05-04T16:20:29.030Z,103063.16
2023-05-04T16:22:56.360Z,103058.69
2023-05-04T16:25:23.472Z,103048.13
2023-05-04T16:27:50.641Z,103037.53
2023-05-04T16:30:18.013Z,103060.44
2023-05-04T16:32:45.192Z,103028.72
2023-05-04T16:35:12.325Z,103065.69
2023-05-04T16:37:39.588Z,103066.59
2023-05-04T16:40:17.416Z,103069.28
2023-05-04T16:42:45.510Z,103074.56
2023-05-04T16:45:14.710Z,103077.22
2023-05-04T16:47:43.244Z,103071.09
2023-05-04T16:50:11.573Z,103060.53
2023-05-04T16:52:41.455Z,103077.25
2023-05-04T16:55:11.774Z,103068.47
2023-05-04T16:57:39.686Z,103087.00
2023-05-04T17:00:14.731Z,103090.50
2023-05-04T17:02:42.167Z,103076.47
2023-05-04T17:05:10.606Z,103086.16
2023-05-04T17:07:39.823Z,103082.66
2023-05-04T17:10:08.496Z,103071.22
2023-05-04T17:12:36.316Z,103065.94
2023-05-04T17:15:04.528Z,103097.69
2023-05-04T17:17:31.677Z,103102.97
2023-05-04T17:19:58.778Z,103087.09
2023-05-04T17:22:26.660Z,103074.78
2023-05-04T17:24:53.870Z,103092.41
2023-05-04T17:27:20.917Z,103060.69
2023-05-04T17:29:48.030Z,103091.56
2023-05-04T17:32:15.135Z,103057.16
2023-05-04T17:34:42.218Z,103080.97
2023-05-04T17:37:09.343Z,103098.63
2023-05-04T17:39:36.525Z,103094.19
2023-05-04T17:42:03.678Z,103102.16
2023-05-04T17:44:32.887Z,103064.19
2023-05-04T17:47:00.427Z,103095.97
2023-05-04T17:49:27.461Z,103107.44
2023-05-04T17:51:56.462Z,103100.41
2023-05-04T17:54:23.732Z,103092.47
2023-05-04T17:56:51.009Z,103110.06
2023-05-04T17:59:18.117Z,103115.38
2023-05-04T18:01:46.080Z,103111.81
2023-05-04T18:04:15.898Z,103121.50
2023-05-04T18:06:42.912Z,103106.50
2023-05-04T18:09:10.496Z,103117.97
2023-05-04T18:11:37.507Z,103073.81
2023-05-04T18:14:04.671Z,103102.00
2023-05-04T18:16:36.247Z,103128.47
2023-05-04T18:19:03.269Z,103124.03
2023-05-04T18:21:30.328Z,103118.72
2023-05-04T18:23:58.030Z,103122.19
2023-05-04T18:26:25.219Z,103110.69
2023-05-04T18:28:52.379Z,103138.91
2023-05-04T18:31:19.681Z,103138.00
2023-05-04T18:33:47.084Z,103139.75
2023-05-04T18:36:14.204Z,103143.22
2023-05-04T18:38:41.593Z,103142.31
2023-05-04T18:41:08.902Z,103133.50
2023-05-04T18:43:35.893Z,103147.53
2023-05-04T18:46:09.297Z,103117.53
2023-05-04T18:48:36.528Z,103137.81
2023-05-04T18:51:03.765Z,103141.34
2023-05-04T18:53:31.215Z,103136.88
2023-05-04T18:56:08.512Z,103141.31
2023-05-04T18:58:37.147Z,103150.94
2023-05-04T19:01:04.820Z,103139.41
2023-05-04T19:03:32.986Z,103118.22
2023-05-04T19:06:00.472Z,103151.69
2023-05-04T19:08:27.819Z,103133.06
2023-05-04T19:10:59.263Z,103092.38
2023-05-04T19:13:26.646Z,103139.19
2023-05-04T19:15:54.220Z,103130.25
2023-05-04T19:18:22.237Z,103155.84
2023-05-04T19:20:49.560Z,103169.88
2023-05-04T19:23:16.755Z,103168.09
2023-05-04T19:25:45.092Z,103152.13
2023-05-04T19:28:12.529Z,103169.78
2023-05-04T19:30:40.572Z,103171.47
2023-05-04T19:33:10.492Z,103163.53
2023-05-04T19:35:37.692Z,103171.41
2023-05-04T19:38:07.691Z,103174.03
2023-05-04T19:40:34.964Z,103148.38
2023-05-04T19:43:02.156Z,103172.16
2023-05-04T19:45:29.517Z,103171.25
2023-05-04T19:47:56.668Z,103184.41
2023-05-04T19:50:24.031Z,103168.44
2023-05-04T19:52:51.941Z,103154.25
2023-05-04T19:55:19.356Z,103155.91
2023-05-04T19:57:47.890Z,103183.25
2023-05-04T20:00:17.254Z,103177.03
2023-05-04T20:02:44.345Z,103183.22
2023-05-04T20:05:11.942Z,103161.00
2023-05-04T20:07:39.387Z,103191.91
2023-05-04T20:10:06.860Z,103187.44
2023-05-04T20:12:34.142Z,103189.13
2023-05-04T20:15:01.180Z,103192.59
2023-05-04T20:17:28.238Z,103191.66
2023-05-04T20:19:55.462Z,103196.03
2023-05-04T20:22:22.772Z,103179.19
2023-05-04T20:24:50.378Z,103189.72
2023-05-04T20:27:17.654Z,103203.78
2023-05-04T20:29:45.450Z,103204.59
2023-05-04T20:32:12.722Z,103202.78
2023-05-04T20:34:40.137Z,103201.84
2023-05-04T20:37:07.345Z,103177.97
2023-05-04T20:39:34.615Z,103204.41
2023-05-04T20:42:01.899Z,103198.13
2023-05-04T20:44:29.101Z,103175.16
2023-05-04T20:46:56.329Z,103206.91
2023-05-04T20:49:23.443Z,103188.31
2023-05-04T20:51:51.693Z,103201.56
2023-05-04T20:54:18.674Z,103182.91
2023-05-04T20:56:45.776Z,103203.22
2023-05-04T20:59:12.973Z,103096.25
2023-05-04T21:01:39.867Z,103171.31
2023-05-04T21:04:07.162Z,103200.50
2023-05-04T21:06:34.165Z,103175.72
2023-05-04T21:09:02.065Z,103198.66
2023-05-04T21:11:29.059Z,103191.63
2023-05-04T21:13:56.199Z,103195.13
2023-05-04T21:16:23.329Z,103184.56
2023-05-04T21:18:50.627Z,103185.47
2023-05-04T21:21:17.693Z,103188.06
2023-05-04T21:23:44.823Z,103193.34
2023-05-04T21:26:12.718Z,103191.56
2023-05-04T21:28:39.834Z,103191.47
2023-05-04T21:31:08.539Z,103194.06
2023-05-04T21:33:36.379Z,103200.22
2023-05-04T21:36:13.872Z,103201.97
2023-05-04T21:38:41.704Z,103205.47
2023-05-04T21:41:16.174Z,103205.44
2023-05-04T21:43:43.620Z,103181.47
2023-05-04T21:46:12.157Z,103210.66
2023-05-04T21:48:39.739Z,103182.31
2023-05-04T21:51:07.250Z,103165.47
2023-05-04T21:53:34.364Z,103214.13
2023-05-04T21:56:05.937Z,103210.53
2023-05-04T21:58:33.093Z,103214.91
2023-05-04T22:01:00.074Z,103178.59
2023-05-04T22:03:29.697Z,103194.47
2023-05-04T22:06:00.752Z,103213.91
2023-05-04T22:08:29.031Z,103198.78
2023-05-04T22:10:57.354Z,103223.44
2023-05-04T22:13:24.732Z,103215.50
2023-05-04T22:15:52.404Z,103220.72
2023-05-04T22:18:19.912Z,103223.28
2023-05-04T22:20:47.687Z,103230.22
2023-05-04T22:23:15.520Z,103227.53
2023-05-04T22:25:42.419Z,103224.88
2023-05-04T22:28:09.549Z,103204.47
2023-05-04T22:30:36.670Z,103221.19
2023-05-04T22:33:03.859Z,103172.44
2023-05-04T22:35:33.867Z,103204.25
2023-05-04T22:38:00.875Z,103204.25
2023-05-04T22:40:27.830Z,103225.28
2023-05-04T22:42:54.960Z,103192.41
2023-05-04T22:45:22.166Z,103213.78
2023-05-04T22:47:49.184Z,103187.94
2023-05-04T22:50:16.388Z,103193.97
2023-05-04T22:52:43.730Z,103226.69
2023-05-04T22:55:11.028Z,103230.16
2023-05-04T22:57:38.278Z,103232.72
2023-05-04T23:00:07.628Z,103230.94
2023-05-04T23:02:35.310Z,103235.25
2023-05-04T23:05:02.797Z,103237.81
2023-05-04T23:07:29.789Z,103240.38
2023-05-04T23:09:57.088Z,103233.31
2023-05-04T23:12:25.689Z,103234.19
2023-05-04T23:14:52.950Z,103233.28
2023-05-04T23:17:20.355Z,103231.44
2023-05-04T23:19:47.783Z,103238.41
2023-05-04T23:22:15.092Z,103204.63
2023-05-04T23:24:42.570Z,103208.22
2023-05-04T23:27:11.252Z,103226.72
2023-05-04T23:29:38.402Z,103243.44
2023-05-04T23:32:05.976Z,103216.94
2023-05-04T23:34:33.394Z,103228.41
2023-05-04T23:37:00.666Z,103187.50
2023-05-04T23:39:27.991Z,103242.44
2023-05-04T23:41:55.365Z,103247.66
2023-05-04T23:44:22.698Z,103233.38
2023-05-04T23:46:49.757Z,103240.53
2023-05-04T23:49:17.219Z,103250.13
2023-05-04T23:51:44.804Z,103253.53
2023-05-04T23:54:11.814Z,103237.63
2023-05-04T23:56:39.224Z,103256.97
2023-05-04T23:59:06.693Z,103257.78
